Welcome to Northern Hawkes Bay. New Zealand.
PWS Header
      nz Flag



Hit Counter


W3C Valid W3C Valid logo


    Wairoa

Select any of the Stations below to visit their websites.










Historic Data from Weather Underground
Select the location of interest below. Wairoa is the default. Please have patience, this Data is slow to load in.
Northern Hawkes Bay Historical Data
Daily Summary for March 30, 2017 Units:  Metric    English   Both
« Previous Day
Next Day »
Daily Weekly Monthly Yearly Custom
  High: Low: Average:
Temperature: 28.2 °C 16.8 °C 21.6 °C
Dew Point: 20.3 °C 15.0 °C 16.7 °C
Humidity: 96% 51% 75%
Wind Speed: 14.8km/h 0.0km/h 4.5km/h
Wind Gust: 23.3km/h - -
Wind- - SW
Pressure: 1018.5 hPa 1012.1 hPa -
Precipitation: 0.0 mm    
Historical Graphs
 
 
Tabular Data for March 30, 2017
Time Temperature Dew Point Pressure Wind Wind Speed Wind Gust Humidity Rainfall Rate (Hourly) solar
00:00 19.4 °C 15.5 °C 1012.4 hPa NNE 6.1 km/h 18.3 km/h 78% 0.3 mm 0 W/m2
00:05 19.5 °C 15.4 °C 1012.4 hPa NNE 8.7 km/h 19.5 km/h 77% 0.3 mm 0 W/m2
00:11 19.6 °C 15.4 °C 1012.1 hPa NNE 7.2 km/h 19.5 km/h 77% 0.3 mm 0 W/m2
00:17 19.7 °C 15.4 °C 1012.4 hPa NNE 11.1 km/h 18.3 km/h 76% 0.3 mm 0 W/m2
00:23 19.9 °C 15.3 °C 1012.4 hPa North 12.2 km/h 19.5 km/h 75% 0.0 mm 0 W/m2
00:30 20.1 °C 15.1 °C 1012.4 hPa North 3.5 km/h 19.5 km/h 73% 0.0 mm 0 W/m2
00:35 20.0 °C 15.0 °C 1012.8 hPa North 8.7 km/h 18.3 km/h 73% 0.0 mm 0 W/m2
00:41 20.0 °C 15.2 °C 1012.8 hPa Calm   14.8 km/h 74% 0.0 mm 0 W/m2
00:47 19.8 °C 15.4 °C 1012.8 hPa North 3.5 km/h 8.7 km/h 76% 0.0 mm 0 W/m2
00:53 19.7 °C 15.4 °C 1012.8 hPa North 6.1 km/h 14.8 km/h 76% 0.0 mm 0 W/m2
01:00 19.7 °C 15.4 °C 1012.8 hPa NNE 3.5 km/h 14.8 km/h 76% 0.0 mm 0 W/m2
01:05 19.5 °C 15.4 °C 1013.1 hPa North 2.6 km/h 11.1 km/h 77% 0.0 mm 0 W/m2
01:11 19.3 °C 15.4 °C 1013.1 hPa Calm   7.2 km/h 78% 0.0 mm 0 W/m2
01:17 19.2 °C 15.3 °C 1013.1 hPa Calm   7.2 km/h 78% 0.0 mm 0 W/m2
01:23 19.1 °C 15.4 °C 1013.1 hPa North 5.0 km/h 11.1 km/h 79% 0.0 mm 0 W/m2
01:30 19.3 °C 15.4 °C 1013.1 hPa North 13.4 km/h 19.5 km/h 78% 0.0 mm 0 W/m2
01:35 19.6 °C 15.3 °C 1012.8 hPa North 9.7 km/h 19.5 km/h 76% 0.0 mm 0 W/m2
01:41 19.7 °C 15.4 °C 1013.1 hPa NNE 6.1 km/h 14.8 km/h 76% 0.0 mm 0 W/m2
01:47 19.8 °C 15.4 °C 1013.1 hPa North 9.7 km/h 15.8 km/h 76% 0.0 mm 0 W/m2
01:53 19.9 °C 15.6 °C 1013.1 hPa North 5.0 km/h 14.8 km/h 76% 0.0 mm 0 W/m2
02:00 19.8 °C 15.7 °C 1013.1 hPa North 5.0 km/h 13.4 km/h 77% 0.0 mm 0 W/m2
02:05 19.7 °C 15.6 °C 1013.1 hPa North 3.5 km/h 13.4 km/h 77% 0.0 mm 0 W/m2
02:11 19.7 °C 15.6 °C 1013.1 hPa North 7.2 km/h 13.4 km/h 77% 0.0 mm 0 W/m2
02:17 19.8 °C 15.7 °C 1013.1 hPa North 9.7 km/h 15.8 km/h 77% 0.0 mm 0 W/m2
02:23 20.0 °C 15.4 °C 1013.1 hPa NNE 12.2 km/h 20.9 km/h 75% 0.0 mm 0 W/m2
02:29 20.1 °C 15.3 °C 1012.8 hPa NNE 6.1 km/h 21.9 km/h 74% 0.0 mm 0 W/m2
02:35 20.1 °C 15.3 °C 1012.8 hPa North 7.2 km/h 21.9 km/h 74% 0.0 mm 0 W/m2
02:41 20.0 °C 15.2 °C 1013.1 hPa NNE 6.1 km/h 18.3 km/h 74% 0.0 mm 0 W/m2
02:47 20.0 °C 15.4 °C 1012.8 hPa NNE 6.1 km/h 18.3 km/h 75% 0.0 mm 0 W/m2
02:53 19.9 °C 15.6 °C 1012.8 hPa NNE 7.2 km/h 17.2 km/h 76% 0.0 mm 0 W/m2
03:00 19.7 °C 15.4 °C 1012.8 hPa North 9.7 km/h 17.2 km/h 76% 0.0 mm 0 W/m2
03:05 19.8 °C 15.4 °C 1012.8 hPa North 8.7 km/h 17.2 km/h 76% 0.0 mm 0 W/m2
03:11 19.6 °C 15.4 °C 1012.8 hPa North 8.7 km/h 17.2 km/h 77% 0.0 mm 0 W/m2
03:17 19.5 °C 15.4 °C 1012.8 hPa North 13.4 km/h 20.9 km/h 77% 0.0 mm 0 W/m2
03:23 19.5 °C 15.4 °C 1012.8 hPa North 6.1 km/h 20.9 km/h 77% 0.0 mm 0 W/m2
03:30 19.2 °C 15.3 °C 1013.1 hPa North 5.0 km/h 15.8 km/h 78% 0.0 mm 0 W/m2
03:35 19.1 °C 15.4 °C 1013.1 hPa North 5.0 km/h 9.7 km/h 79% 0.0 mm 0 W/m2
03:41 19.2 °C 15.5 °C 1013.1 hPa NNW 5.0 km/h 12.2 km/h 79% 0.0 mm 0 W/m2
03:47 19.1 °C 15.4 °C 1013.1 hPa North 5.0 km/h 12.2 km/h 79% 0.0 mm 0 W/m2
03:53 19.0 °C 15.3 °C 1013.1 hPa North 5.0 km/h 12.2 km/h 79% 0.0 mm 0 W/m2
04:00 19.0 °C 15.5 °C 1013.1 hPa NNE 8.7 km/h 14.8 km/h 80% 0.0 mm 0 W/m2
04:05 19.1 °C 15.4 °C 1013.1 hPa North 6.1 km/h 14.8 km/h 79% 0.0 mm 0 W/m2
04:11 19.1 °C 15.4 °C 1013.4 hPa North 7.2 km/h 12.2 km/h 79% 0.0 mm 0 W/m2
04:17 19.1 °C 15.4 °C 1013.4 hPa North 6.1 km/h 12.2 km/h 79% 0.0 mm 0 W/m2
04:23 19.4 °C 15.5 °C 1013.4 hPa North 5.0 km/h 12.2 km/h 78% 0.0 mm 0 W/m2
04:30 19.4 °C 15.7 °C 1013.4 hPa NNW 6.1 km/h 12.2 km/h 79% 0.0 mm 0 W/m2
04:35 19.1 °C 15.8 °C 1013.4 hPa North 2.6 km/h 12.2 km/h 81% 0.3 mm 0 W/m2
04:41 18.8 °C 16.2 °C 1013.4 hPa North 2.6 km/h 11.1 km/h 85% 0.3 mm 0 W/m2
04:47 18.8 °C 16.2 °C 1013.4 hPa North 6.1 km/h 12.2 km/h 85% 0.3 mm 0 W/m2
04:53 19.0 °C 16.1 °C 1013.4 hPa North 3.5 km/h 15.8 km/h 83% 0.3 mm 0 W/m2
05:00 19.1 °C 15.9 °C 1013.4 hPa North 7.2 km/h 15.8 km/h 82% 0.3 mm 0 W/m2
05:05 19.1 °C 15.8 °C 1013.4 hPa North 6.1 km/h 13.4 km/h 81% 0.3 mm 0 W/m2
05:11 19.1 °C 15.8 °C 1013.4 hPa North 6.1 km/h 14.8 km/h 81% 0.3 mm 0 W/m2
05:17 19.3 °C 15.8 °C 1013.4 hPa North 3.5 km/h 17.2 km/h 80% 0.3 mm 0 W/m2
05:23 19.3 °C 15.8 °C 1013.4 hPa North 12.2 km/h 17.2 km/h 80% 0.3 mm 0 W/m2
05:31 19.3 °C 15.6 °C 1013.4 hPa North 9.7 km/h 17.2 km/h 79% 0.0 mm 0 W/m2
05:37 19.3 °C 15.6 °C 1013.4 hPa North 3.5 km/h 14.8 km/h 79% 0.0 mm 0 W/m2
05:43 19.1 °C 15.6 °C 1013.4 hPa NNW 6.1 km/h 11.1 km/h 80% 0.0 mm 0 W/m2
05:49 19.1 °C 15.6 °C 1013.4 hPa North 12.2 km/h 15.8 km/h 80% 0.0 mm 0 W/m2
05:55 19.3 °C 15.6 °C 1013.8 hPa North 7.2 km/h 15.8 km/h 79% 0.0 mm 0 W/m2
06:01 19.1 °C 15.6 °C 1013.8 hPa Calm   14.8 km/h 80% 0.0 mm 0 W/m2
06:07 18.7 °C 15.6 °C 1013.8 hPa NW 3.5 km/h 7.2 km/h 82% 0.0 mm 0 W/m2
06:13 18.5 °C 15.8 °C 1014.1 hPa NW 2.6 km/h 7.2 km/h 84% 0.0 mm 0 W/m2
06:19 18.1 °C 15.6 °C 1014.1 hPa Calm   7.2 km/h 85% 0.0 mm 0 W/m2
06:25 17.9 °C 15.2 °C 1014.1 hPa Calm     84% 0.0 mm 0 W/m2
06:31 17.7 °C 15.2 °C 1014.1 hPa Calm     85% 0.0 mm 0 W/m2
06:37 17.6 °C 15.1 °C 1014.4 hPa Calm     85% 0.0 mm 0 W/m2
06:43 17.4 °C 15.1 °C 1014.1 hPa Calm     86% 0.0 mm 0 W/m2
06:50 17.3 °C 15.1 °C 1014.4 hPa Calm     87% 0.0 mm 0 W/m2
06:55 17.2 °C 15.2 °C 1014.4 hPa Calm     88% 0.0 mm 0 W/m2
07:01 17.1 °C 15.1 °C 1014.4 hPa Calm     88% 0.0 mm 0 W/m2
07:07 16.9 °C 15.1 °C 1014.4 hPa Calm     89% 0.0 mm 0 W/m2
07:13 16.8 °C 15.2 °C 1014.4 hPa Calm     90% 0.0 mm 0 W/m2
07:19 16.9 °C 15.4 °C 1014.4 hPa Calm     91% 0.0 mm 1 W/m2
07:25 16.8 °C 15.3 °C 1014.4 hPa Calm   3.5 km/h 91% 0.0 mm 4 W/m2
07:31 16.9 °C 15.6 °C 1014.4 hPa NW 1.1 km/h 6.1 km/h 92% 0.0 mm 9 W/m2
07:37 16.9 °C 15.6 °C 1014.4 hPa Calm   5.0 km/h 92% 0.0 mm 14 W/m2
07:43 17.0 °C 15.6 °C 1014.4 hPa Calm   5.0 km/h 91% 0.0 mm 21 W/m2
07:50 17.1 °C 15.6 °C 1014.8 hPa North 3.5 km/h 7.2 km/h 91% 0.0 mm 28 W/m2
07:55 17.3 °C 15.7 °C 1014.8 hPa North 5.0 km/h 11.1 km/h 90% 0.0 mm 40 W/m2
08:01 17.7 °C 15.9 °C 1014.8 hPa North 9.7 km/h 13.4 km/h 89% 0.0 mm 54 W/m2
08:07 18.4 °C 16.0 °C 1014.8 hPa North 8.7 km/h 13.4 km/h 86% 0.0 mm 70 W/m2
08:13 18.9 °C 16.3 °C 1014.8 hPa North 6.1 km/h 12.2 km/h 85% 0.0 mm 98 W/m2
08:19 19.6 °C 16.1 °C 1014.8 hPa North 2.6 km/h 13.4 km/h 80% 0.0 mm 181 W/m2
08:25 20.2 °C 16.3 °C 1014.8 hPa North 7.2 km/h 13.4 km/h 78% 0.0 mm 83 W/m2
08:31 20.1 °C 15.9 °C 1014.8 hPa North 7.2 km/h 12.2 km/h 77% 0.0 mm 82 W/m2
08:37 20.1 °C 15.9 °C 1015.1 hPa North 7.2 km/h 13.4 km/h 77% 0.0 mm 88 W/m2
08:43 20.3 °C 16.2 °C 1015.5 hPa NNW 1.1 km/h 13.4 km/h 77% 0.0 mm 102 W/m2
08:49 20.5 °C 16.1 °C 1015.1 hPa NNW 3.5 km/h 12.2 km/h 76% 0.0 mm 101 W/m2
08:55 20.6 °C 16.2 °C 1015.5 hPa NNW 1.1 km/h 9.7 km/h 76% 0.0 mm 96 W/m2
09:01 20.6 °C 16.2 °C 1015.5 hPa NNW 6.1 km/h 11.1 km/h 76% 0.0 mm 109 W/m2
09:07 20.3 °C 16.3 °C 1015.5 hPa NNW 6.1 km/h 11.1 km/h 78% 0.0 mm 109 W/m2
09:13 20.4 °C 16.4 °C 1015.5 hPa North 2.6 km/h 9.7 km/h 78% 0.0 mm 119 W/m2
09:19 20.7 °C 16.3 °C 1015.5 hPa Calm   9.7 km/h 76% 0.0 mm 105 W/m2
09:25 20.7 °C 16.6 °C 1015.5 hPa NNW 3.5 km/h 8.7 km/h 77% 0.0 mm 113 W/m2
09:31 20.8 °C 16.6 °C 1015.5 hPa Calm   8.7 km/h 77% 0.0 mm 114 W/m2
09:37 21.0 °C 16.2 °C 1015.5 hPa NNW 6.1 km/h 9.7 km/h 74% 0.0 mm 164 W/m2
09:43 21.6 °C 16.6 °C 1015.8 hPa North 1.1 km/h 11.1 km/h 73% 0.0 mm 195 W/m2
09:49 22.0 °C 16.7 °C 1015.8 hPa North 5.0 km/h 11.1 km/h 72% 0.0 mm 266 W/m2
09:55 22.9 °C 16.7 °C 1015.8 hPa North 8.7 km/h 14.8 km/h 68% 0.0 mm 454 W/m2
10:01 23.5 °C 16.8 °C 1016.1 hPa North 12.2 km/h 18.3 km/h 66% 0.0 mm 321 W/m2
10:07 23.2 °C 16.8 °C 1016.1 hPa North 8.7 km/h 18.3 km/h 67% 0.0 mm 283 W/m2
10:13 23.1 °C 16.4 °C 1016.1 hPa North 6.1 km/h 15.8 km/h 66% 0.0 mm 203 W/m2
10:19 23.1 °C 16.7 °C 1016.1 hPa North 6.1 km/h 14.8 km/h 67% 0.0 mm 233 W/m2
10:25 23.2 °C 17.0 °C 1016.1 hPa North 9.7 km/h 15.8 km/h 68% 0.0 mm 204 W/m2
10:31 23.3 °C 16.8 °C 1016.5 hPa North 3.5 km/h 15.8 km/h 67% 0.0 mm 326 W/m2
10:37 23.6 °C 17.1 °C 1016.5 hPa North 2.6 km/h 13.4 km/h 67% 0.0 mm 341 W/m2
10:43 24.7 °C 17.7 °C 1016.5 hPa North 3.5 km/h 13.4 km/h 65% 0.0 mm 287 W/m2
10:49 24.6 °C 16.8 °C 1016.5 hPa North 6.1 km/h 14.8 km/h 62% 0.0 mm 372 W/m2
10:55 25.2 °C 17.2 °C 1016.5 hPa NNW 5.0 km/h 14.8 km/h 61% 0.0 mm 308 W/m2
11:01 25.8 °C 17.4 °C 1016.5 hPa NW 7.2 km/h 12.2 km/h 60% 0.0 mm 128 W/m2
11:07 25.8 °C 16.9 °C 1016.8 hPa NNW 2.6 km/h 14.8 km/h 58% 0.0 mm 115 W/m2
11:13 25.8 °C 16.4 °C 1016.8 hPa NNW 11.1 km/h 17.2 km/h 56% 0.0 mm 113 W/m2
11:19 25.8 °C 17.2 °C 1016.5 hPa NW 9.7 km/h 17.2 km/h 59% 0.0 mm 117 W/m2
11:25 25.8 °C 16.9 °C 1016.8 hPa NNW 6.1 km/h 14.8 km/h 58% 0.0 mm 170 W/m2
11:31 26.1 °C 16.4 °C 1016.8 hPa NNW 9.7 km/h 17.2 km/h 55% 0.0 mm 244 W/m2
11:37 25.7 °C 16.6 °C 1016.8 hPa NNW 9.7 km/h 19.5 km/h 57% 0.0 mm 394 W/m2
11:43 25.5 °C 16.7 °C 1016.8 hPa North 9.7 km/h 19.5 km/h 58% 0.0 mm 299 W/m2
11:49 25.4 °C 16.8 °C 1016.8 hPa NNE 9.7 km/h 14.8 km/h 59% 0.0 mm 582 W/m2
11:55 25.0 °C 16.2 °C 1016.8 hPa NNE 5.0 km/h 15.8 km/h 58% 0.0 mm 167 W/m2
12:01 24.6 °C 16.8 °C 1016.8 hPa North 9.7 km/h 15.8 km/h 62% 0.0 mm 201 W/m2
12:07 24.5 °C 17.0 °C 1016.8 hPa North 7.2 km/h 15.8 km/h 63% 0.0 mm 361 W/m2
12:13 25.2 °C 17.2 °C 1016.8 hPa North 6.1 km/h 17.2 km/h 61% 0.0 mm 509 W/m2
12:19 26.0 °C 17.1 °C 1016.5 hPa NNE 11.1 km/h 17.2 km/h 58% 0.0 mm 763 W/m2
12:25 26.1 °C 16.7 °C 1016.8 hPa North 11.1 km/h 21.9 km/h 56% 0.0 mm 670 W/m2
12:31 26.1 °C 16.7 °C 1016.8 hPa North 11.1 km/h 21.9 km/h 56% 0.0 mm 465 W/m2
12:37 25.5 °C 16.1 °C 1016.5 hPa NNW 11.1 km/h 21.9 km/h 56% 0.0 mm 243 W/m2
12:43 24.7 °C 16.4 °C 1016.8 hPa NW 8.7 km/h 20.9 km/h 60% 0.0 mm 221 W/m2
12:49 24.8 °C 16.8 °C 1016.5 hPa NNW 5.0 km/h 20.9 km/h 61% 0.0 mm 210 W/m2
12:55 24.9 °C 16.9 °C 1016.5 hPa NNW 11.1 km/h 18.3 km/h 61% 0.0 mm 227 W/m2
13:01 24.9 °C 17.4 °C 1016.8 hPa NW 7.2 km/h 18.3 km/h 63% 0.0 mm 381 W/m2
13:07 25.3 °C 16.7 °C 1016.8 hPa NW 8.7 km/h 15.8 km/h 59% 0.0 mm 348 W/m2
13:13 25.2 °C 16.7 °C 1016.8 hPa NW 5.0 km/h 18.3 km/h 59% 0.0 mm 364 W/m2
13:19 25.4 °C 16.8 °C 1016.8 hPa NW 11.1 km/h 18.3 km/h 59% 0.0 mm 342 W/m2
13:25 25.3 °C 16.7 °C 1016.5 hPa NNW 12.2 km/h 17.2 km/h 59% 0.0 mm 323 W/m2
13:31 25.4 °C 16.8 °C 1016.5 hPa NNW 8.7 km/h 15.8 km/h 59% 0.0 mm 369 W/m2
13:37 25.6 °C 16.7 °C 1016.5 hPa North 8.7 km/h 15.8 km/h 58% 0.0 mm 271 W/m2
13:43 25.3 °C 16.4 °C 1016.5 hPa North 7.2 km/h 18.3 km/h 58% 0.0 mm 368 W/m2
13:49 25.8 °C 17.2 °C 1016.1 hPa North 7.2 km/h 18.3 km/h 59% 0.0 mm 644 W/m2
13:55 26.2 °C 17.1 °C 1016.1 hPa NW 6.1 km/h 14.8 km/h 57% 0.0 mm 573 W/m2
14:01 26.5 °C 16.7 °C 1016.1 hPa NNW 5.0 km/h 14.8 km/h 55% 0.0 mm 301 W/m2
14:07 25.9 °C 16.8 °C 1016.1 hPa North 5.0 km/h 12.2 km/h 57% 0.0 mm 265 W/m2
14:13 25.8 °C 16.7 °C 1016.1 hPa North 8.7 km/h 13.4 km/h 57% 0.0 mm 269 W/m2
14:19 25.7 °C 16.8 °C 1016.1 hPa NNW 5.0 km/h 13.4 km/h 58% 0.0 mm 321 W/m2
14:25 25.9 °C 16.8 °C 1016.1 hPa NNW 5.0 km/h 12.2 km/h 57% 0.0 mm 318 W/m2
14:31 25.8 °C 16.7 °C 1016.1 hPa NNW 12.2 km/h 17.2 km/h 57% 0.0 mm 314 W/m2
14:37 26.1 °C 16.7 °C 1016.1 hPa NNW 11.1 km/h 19.5 km/h 56% 0.0 mm 671 W/m2
14:43 27.4 °C 17.3 °C 1015.8 hPa North 7.2 km/h 17.2 km/h 54% 0.0 mm 744 W/m2
14:49 28.0 °C 16.9 °C 1015.8 hPa North 5.0 km/h 17.2 km/h 51% 0.0 mm 764 W/m2
14:55 28.0 °C 17.6 °C 1016.1 hPa North 5.0 km/h 17.2 km/h 53% 0.0 mm 232 W/m2
15:02 27.3 °C 16.9 °C 1015.8 hPa North 7.2 km/h 14.8 km/h 53% 0.0 mm 565 W/m2
15:07 26.9 °C 16.6 °C 1016.1 hPa NNW 8.7 km/h 17.2 km/h 53% 0.0 mm 248 W/m2
15:13 26.9 °C 16.8 °C 1016.1 hPa NNW 7.2 km/h 17.2 km/h 54% 0.0 mm 222 W/m2
15:19 26.9 °C 16.6 °C 1015.8 hPa NNW 12.2 km/h 19.5 km/h 53% 0.0 mm 156 W/m2
15:25 26.4 °C 16.7 °C 1015.8 hPa NNW 8.7 km/h 21.9 km/h 55% 0.0 mm 209 W/m2
15:31 26.7 °C 17.5 °C 1015.8 hPa NNW 11.1 km/h 23.3 km/h 57% 0.0 mm 245 W/m2
15:37 26.8 °C 17.1 °C 1015.8 hPa North 14.8 km/h 23.3 km/h 55% 0.0 mm 259 W/m2
15:43 26.9 °C 17.1 °C 1015.8 hPa North 9.7 km/h 21.9 km/h 55% 0.0 mm 237 W/m2
15:49 26.6 °C 16.8 °C 1015.8 hPa North 8.7 km/h 19.5 km/h 55% 0.0 mm 178 W/m2
15:55 27.7 °C 17.0 °C 1016.1 hPa NNW 11.1 km/h 18.3 km/h 52% 0.0 mm 155 W/m2
16:01 27.1 °C 16.4 °C 1015.8 hPa NNW 3.5 km/h 18.3 km/h 52% 0.0 mm 173 W/m2
16:07 27.5 °C 16.8 °C 1015.8 hPa North 5.0 km/h 18.3 km/h 52% 0.0 mm 415 W/m2
16:13 27.7 °C 16.7 °C 1015.8 hPa North 7.2 km/h 17.2 km/h 51% 0.0 mm 119 W/m2
16:19 26.1 °C 16.1 °C 1015.8 hPa North 2.6 km/h 13.4 km/h 54% 0.0 mm 115 W/m2
16:25 26.9 °C 16.8 °C 1016.1 hPa NNW 2.6 km/h 13.4 km/h 54% 0.0 mm 438 W/m2
16:31 27.1 °C 16.4 °C 1015.8 hPa NW 1.1 km/h 9.7 km/h 52% 0.0 mm 176 W/m2
16:37 27.3 °C 17.2 °C 1015.8 hPa Calm   8.7 km/h 54% 0.0 mm 106 W/m2
16:43 28.2 °C 17.4 °C 1015.8 hPa WSW 1.1 km/h 7.2 km/h 52% 0.0 mm 107 W/m2
16:49 26.6 °C 17.4 °C 1015.8 hPa SW 5.0 km/h 7.2 km/h 57% 0.0 mm 146 W/m2
16:55 25.5 °C 18.2 °C 1015.8 hPa SW 5.0 km/h 11.1 km/h 64% 0.0 mm 87 W/m2
17:01 24.9 °C 18.6 °C 1015.8 hPa SW 6.1 km/h 9.7 km/h 68% 0.0 mm 79 W/m2
17:07 23.8 °C 18.4 °C 1015.8 hPa SW 5.0 km/h 11.1 km/h 72% 0.0 mm 95 W/m2
17:13 23.5 °C 18.4 °C 1015.8 hPa Calm   11.1 km/h 73% 0.0 mm 122 W/m2
17:19 24.0 °C 18.9 °C 1015.8 hPa SW 5.0 km/h 7.2 km/h 73% 0.0 mm 250 W/m2
17:25 25.5 °C 19.4 °C 1015.8 hPa South 5.0 km/h 8.7 km/h 69% 0.0 mm 270 W/m2
17:31 27.0 °C 18.9 °C 1015.8 hPa South 2.6 km/h 8.7 km/h 61% 0.0 mm 149 W/m2
17:37 25.9 °C 18.3 °C 1016.1 hPa SSE 3.5 km/h 8.7 km/h 63% 0.0 mm 91 W/m2
17:43 24.7 °C 18.9 °C 1016.1 hPa South 5.0 km/h 9.7 km/h 70% 0.0 mm 53 W/m2
17:49 23.8 °C 18.9 °C 1016.1 hPa South 5.0 km/h 9.7 km/h 74% 0.0 mm 62 W/m2
17:55 23.3 °C 19.1 °C 1016.1 hPa SSW 1.1 km/h 8.7 km/h 77% 0.0 mm 84 W/m2
18:01 23.7 °C 19.7 °C 1016.1 hPa South 3.5 km/h 8.7 km/h 78% 0.0 mm 110 W/m2
18:07 23.8 °C 19.6 °C 1016.1 hPa South 7.2 km/h 8.7 km/h 77% 0.0 mm 80 W/m2
18:13 23.7 °C 19.4 °C 1016.1 hPa South 2.6 km/h 8.7 km/h 77% 0.0 mm 71 W/m2
18:17 24.4 °C 19.9 °C 1016.1 hPa South 2.6 km/h 8.7 km/h 76% 0.0 mm 59 W/m2
18:23 25.3 °C 20.1 °C 1016.1 hPa Calm   7.2 km/h 73% 0.0 mm 46 W/m2
18:29 25.8 °C 19.7 °C 1016.1 hPa Calm     69% 0.0 mm 30 W/m2
18:35 25.9 °C 20.3 °C 1016.1 hPa Calm     71% 0.0 mm 32 W/m2
18:41 25.6 °C 19.3 °C 1016.1 hPa Calm     68% 0.0 mm 22 W/m2
18:47 24.0 °C 19.1 °C 1016.1 hPa Calm     74% 0.0 mm 18 W/m2
18:53 23.7 °C 19.2 °C 1016.5 hPa Calm     76% 0.0 mm 13 W/m2
18:59 22.8 °C 18.2 °C 1016.5 hPa Calm     75% 0.0 mm 9 W/m2
19:05 22.2 °C 18.0 °C 1016.5 hPa Calm     77% 0.0 mm 4 W/m2
19:11 21.7 °C 18.3 °C 1016.5 hPa Calm     81% 0.0 mm 1 W/m2
19:17 21.5 °C 18.3 °C 1016.5 hPa Calm     82% 0.0 mm 0 W/m2
19:23 21.3 °C 18.3 °C 1016.5 hPa Calm     83% 0.0 mm 0 W/m2
19:29 21.1 °C 18.3 °C 1016.8 hPa Calm     84% 0.0 mm 0 W/m2
19:35 20.8 °C 18.2 °C 1016.8 hPa Calm     85% 0.0 mm 0 W/m2
19:41 20.7 °C 18.3 °C 1016.8 hPa Calm     86% 0.0 mm 0 W/m2
19:47 20.4 °C 18.2 °C 1016.8 hPa Calm     87% 0.0 mm 0 W/m2
19:53 20.3 °C 18.1 °C 1016.8 hPa Calm     87% 0.0 mm 0 W/m2
19:59 20.2 °C 18.3 °C 1017.2 hPa Calm     89% 0.0 mm 0 W/m2
20:05 20.1 °C 18.4 °C 1017.2 hPa Calm     90% 0.0 mm 0 W/m2
20:11 20.0 °C 18.3 °C 1017.2 hPa Calm     90% 0.0 mm 0 W/m2
20:17 19.9 °C 18.6 °C 1017.5 hPa Calm     92% 0.0 mm 0 W/m2
20:24 19.8 °C 18.5 °C 1017.5 hPa Calm     92% 0.0 mm 0 W/m2
20:30 19.7 °C 18.4 °C 1017.5 hPa Calm     92% 0.0 mm 0 W/m2
20:35 19.6 °C 18.4 °C 1017.5 hPa Calm     93% 0.0 mm 0 W/m2
20:41 19.5 °C 18.5 °C 1017.5 hPa Calm     94% 0.0 mm 0 W/m2
20:47 19.5 °C 18.5 °C 1017.5 hPa Calm     94% 0.0 mm 0 W/m2
20:53 19.4 °C 18.4 °C 1017.8 hPa Calm     94% 0.0 mm 0 W/m2
21:00 19.2 °C 18.2 °C 1017.8 hPa Calm     94% 0.0 mm 0 W/m2
21:05 19.0 °C 18.0 °C 1017.8 hPa Calm     94% 0.0 mm 0 W/m2
21:11 18.9 °C 18.1 °C 1017.8 hPa Calm     95% 0.0 mm 0 W/m2
21:17 18.7 °C 17.9 °C 1018.2 hPa Calm     95% 0.0 mm 0 W/m2
21:23 18.5 °C 17.9 °C 1018.2 hPa Calm     96% 0.0 mm 0 W/m2
21:29 18.4 °C 17.8 °C 1018.2 hPa Calm     96% 0.0 mm 0 W/m2
21:35 18.3 °C 17.7 °C 1018.2 hPa Calm     96% 0.0 mm 0 W/m2
21:41 18.3 °C 17.7 °C 1018.2 hPa Calm     96% 0.0 mm 0 W/m2
21:47 18.2 °C 17.6 °C 1018.2 hPa Calm     96% 0.0 mm 0 W/m2
21:53 18.2 °C 17.6 °C 1018.2 hPa Calm     96% 0.0 mm 0 W/m2
21:59 18.1 °C 17.4 °C 1018.2 hPa Calm   6.1 km/h 96% 0.0 mm 0 W/m2
22:05 18.2 °C 17.6 °C 1018.2 hPa Calm   6.1 km/h 96% 0.0 mm 0 W/m2
22:11 18.4 °C 17.4 °C 1018.2 hPa Calm     94% 0.0 mm 0 W/m2
22:17 18.5 °C 17.2 °C 1018.2 hPa Calm   6.1 km/h 92% 0.0 mm 0 W/m2
22:23 18.6 °C 16.9 °C 1018.2 hPa Calm   7.2 km/h 90% 0.0 mm 0 W/m2
22:29 18.6 °C 16.8 °C 1018.2 hPa Calm   6.1 km/h 89% 0.0 mm 0 W/m2
22:35 18.5 °C 16.7 °C 1018.2 hPa Calm   6.1 km/h 89% 0.0 mm 0 W/m2
22:41 18.4 °C 16.4 °C 1018.2 hPa NNW 2.6 km/h 6.1 km/h 88% 0.0 mm 0 W/m2
22:47 18.3 °C 16.3 °C 1018.2 hPa Calm   6.1 km/h 88% 0.0 mm 0 W/m2
22:53 18.3 °C 16.3 °C 1018.2 hPa Calm   6.1 km/h 88% 0.0 mm 0 W/m2
22:59 18.2 °C 16.2 °C 1018.2 hPa Calm   1.1 km/h 88% 0.0 mm 0 W/m2
23:05 18.1 °C 16.1 °C 1018.2 hPa Calm     88% 0.0 mm 0 W/m2
23:11 18.0 °C 16.0 °C 1018.5 hPa Calm     88% 0.0 mm 0 W/m2
23:17 17.8 °C 15.8 °C 1018.2 hPa Calm     88% 0.0 mm 0 W/m2
23:23 17.6 °C 15.6 °C 1018.2 hPa Calm     88% 0.0 mm 0 W/m2
23:29 17.4 °C 15.4 °C 1018.5 hPa Calm     88% 0.0 mm 0 W/m2
23:35 17.3 °C 15.5 °C 1018.2 hPa Calm     89% 0.0 mm 0 W/m2
23:41 17.2 °C 15.4 °C 1018.2 hPa Calm     89% 0.0 mm 0 W/m2
23:47 17.2 °C 15.6 °C 1018.5 hPa Calm     90% 0.0 mm 0 W/m2
23:53 17.1 °C 15.4 °C 1018.5 hPa Calm     90% 0.0 mm 0 W/m2
23:59 17.0 °C 15.3 °C 1018.2 hPa Calm     90% 0.0 mm 0 W/m2
Northern Hawkes Bay. New Zealand Historic Data
Compliments of Weather Underground - 2 mb